createdAt,value
2023-04-15T00:01:24.105Z,94.42
2023-04-15T00:06:26.399Z,94.28
2023-04-15T00:11:28.952Z,93.87
2023-04-15T00:16:31.491Z,93.16
2023-04-15T00:21:49.165Z,92.96
2023-04-15T00:26:51.407Z,93.49
2023-04-15T00:31:53.595Z,93.10
2023-04-15T00:36:55.832Z,93.22
2023-04-15T00:41:58.116Z,92.65
2023-04-15T00:47:02.059Z,92.67
2023-04-15T00:52:04.462Z,92.32
2023-04-15T00:57:07.234Z,92.03
2023-04-15T01:02:09.537Z,92.09
2023-04-15T01:07:12.095Z,92.31
2023-04-15T01:12:18.486Z,92.16
2023-04-15T01:17:21.082Z,92.31
2023-04-15T01:22:24.372Z,91.22
2023-04-15T01:27:26.643Z,91.53
2023-04-15T01:32:29.334Z,91.54
2023-04-15T01:37:33.494Z,91.51
2023-04-15T01:42:36.876Z,91.45
2023-04-15T01:47:39.409Z,91.45
2023-04-15T01:52:44.309Z,91.40
2023-04-15T01:57:46.719Z,91.34
2023-04-15T02:02:49.559Z,91.36
2023-04-15T02:07:52.270Z,91.22
2023-04-15T02:12:57.320Z,91.14
2023-04-15T02:18:00.960Z,91.02
2023-04-15T02:23:03.250Z,90.84
2023-04-15T02:28:06.492Z,90.68
2023-04-15T02:33:08.733Z,90.94
2023-04-15T02:38:11.636Z,90.74
2023-04-15T02:43:13.813Z,90.27
2023-04-15T02:48:18.116Z,90.90
2023-04-15T02:53:20.850Z,91.14
2023-04-15T02:58:23.049Z,91.46
2023-04-15T03:03:25.346Z,91.23
2023-04-15T03:08:27.573Z,91.47
2023-04-15T03:13:29.782Z,91.29
2023-04-15T03:18:31.947Z,91.00
2023-04-15T03:23:34.061Z,91.14
2023-04-15T03:28:36.569Z,91.01
2023-04-15T03:33:38.729Z,90.34
2023-04-15T03:38:41.091Z,90.32
2023-04-15T03:43:43.330Z,90.59
2023-04-15T03:48:45.526Z,90.44
2023-04-15T03:53:47.724Z,90.63
2023-04-15T03:58:49.838Z,90.50
2023-04-15T04:03:52.528Z,90.61
2023-04-15T04:08:54.819Z,90.72
2023-04-15T04:13:56.922Z,91.30
2023-04-15T04:18:59.381Z,91.54
2023-04-15T04:24:01.796Z,91.72
2023-04-15T04:29:04.123Z,91.69
2023-04-15T04:34:06.640Z,91.70
2023-04-15T04:39:09.017Z,91.58
2023-04-15T04:44:11.186Z,91.17
2023-04-15T04:49:13.326Z,90.84
2023-04-15T04:54:16.244Z,90.47
2023-04-15T04:59:19.494Z,89.86
2023-04-15T05:04:21.758Z,89.01
2023-04-15T05:09:26.619Z,87.90
2023-04-15T05:14:28.745Z,86.92
2023-04-15T05:19:30.979Z,86.29
2023-04-15T05:24:33.132Z,85.19
2023-04-15T05:29:35.266Z,84.10
2023-04-15T05:34:38.718Z,82.69
2023-04-15T05:39:40.896Z,82.50
2023-04-15T05:44:43.222Z,82.59
2023-04-15T05:49:45.535Z,82.36
2023-04-15T05:54:47.712Z,82.51
2023-04-15T05:59:52.410Z,83.50
2023-04-15T06:04:54.641Z,83.00
2023-04-15T06:09:57.022Z,81.16
2023-04-15T06:15:00.513Z,82.63
2023-04-15T06:20:03.677Z,82.62
2023-04-15T06:25:08.211Z,80.82
2023-04-15T06:30:10.819Z,79.25
2023-04-15T06:35:13.034Z,78.71
2023-04-15T06:40:15.354Z,77.35
2023-04-15T06:45:18.838Z,76.68
2023-04-15T06:50:21.001Z,74.68
2023-04-15T06:55:23.256Z,74.59
2023-04-15T07:00:25.659Z,77.11
2023-04-15T07:05:28.126Z,77.89
2023-04-15T07:10:30.705Z,76.81
2023-04-15T07:15:33.607Z,75.76
2023-04-15T07:20:36.336Z,72.56
2023-04-15T07:25:38.580Z,72.66
2023-04-15T07:30:41.664Z,70.85
2023-04-15T07:35:44.132Z,71.14
2023-04-15T07:40:46.937Z,66.47
2023-04-15T07:45:49.154Z,62.45
2023-04-15T07:50:51.682Z,62.81
2023-04-15T07:55:53.970Z,62.76
2023-04-15T08:00:56.289Z,57.32
2023-04-15T08:06:01.115Z,54.21
2023-04-15T08:11:03.308Z,54.88
2023-04-15T08:16:18.665Z,51.70
2023-04-15T08:21:21.090Z,56.34
2023-04-15T08:26:23.525Z,56.21
2023-04-15T08:31:29.896Z,56.44
2023-04-15T08:36:32.622Z,55.80
2023-04-15T08:41:41.286Z,52.72
2023-04-15T08:46:44.772Z,56.73
2023-04-15T08:51:47.743Z,53.97
2023-04-15T08:56:50.864Z,54.84
2023-04-15T09:01:53.601Z,56.62
2023-04-15T09:06:57.602Z,53.59
2023-04-15T09:12:01.646Z,49.49
2023-04-15T09:17:04.798Z,49.21
2023-04-15T09:22:07.106Z,44.29
2023-04-15T09:27:09.387Z,47.83
2023-04-15T09:32:15.684Z,53.65
2023-04-15T09:37:31.756Z,49.56
2023-04-15T09:42:34.668Z,52.98
2023-04-15T09:47:37.126Z,56.48
2023-04-15T09:52:43.976Z,53.86
2023-04-15T09:57:49.565Z,51.74
2023-04-15T10:02:52.354Z,49.95
2023-04-15T10:07:54.979Z,50.36
2023-04-15T10:12:57.356Z,54.57
2023-04-15T10:18:01.511Z,56.02
2023-04-15T10:23:04.345Z,57.95
2023-04-15T10:28:09.009Z,54.88
2023-04-15T10:33:11.586Z,55.66
2023-04-15T10:38:39.193Z,58.66
2023-04-15T10:44:25.167Z,58.84
2023-04-15T10:49:27.561Z,57.98
2023-04-15T10:54:29.657Z,56.78
2023-04-15T10:59:32.688Z,56.16
2023-04-15T11:04:54.016Z,56.62
2023-04-15T11:09:56.590Z,60.45
2023-04-15T11:14:58.857Z,63.58
2023-04-15T11:20:01.391Z,65.41
2023-04-15T11:25:04.609Z,67.45
2023-04-15T11:30:27.100Z,67.48
2023-04-15T11:35:30.705Z,61.29
2023-04-15T11:40:36.433Z,54.03
2023-04-15T11:45:53.039Z,50.59
2023-04-15T11:51:10.097Z,52.35
2023-04-15T11:56:30.809Z,55.15
2023-04-15T12:01:39.379Z,54.87
2023-04-15T12:06:41.898Z,54.57
2023-04-15T12:11:44.046Z,57.95
2023-04-15T12:16:52.659Z,53.00
2023-04-15T12:22:01.450Z,49.64
2023-04-15T12:27:09.352Z,47.36
2023-04-15T12:32:18.619Z,51.27
2023-04-15T12:37:20.988Z,58.50
2023-04-15T12:42:23.240Z,58.96
2023-04-15T12:47:25.482Z,59.57
2023-04-15T12:52:27.755Z,57.84
2023-04-15T12:57:29.958Z,58.80
2023-04-15T13:02:32.438Z,60.65
2023-04-15T13:07:34.767Z,62.71
2023-04-15T13:12:37.430Z,60.27
2023-04-15T13:17:39.668Z,59.81
2023-04-15T13:22:42.637Z,58.52
2023-04-15T13:27:44.863Z,60.29
2023-04-15T13:32:48.782Z,58.43
2023-04-15T13:37:54.305Z,59.67
2023-04-15T13:42:57.793Z,60.23
2023-04-15T13:47:59.999Z,61.61
2023-04-15T13:53:02.583Z,61.16
2023-04-15T13:58:04.810Z,60.09
2023-04-15T14:03:07.187Z,59.86
2023-04-15T14:08:09.525Z,60.37
2023-04-15T14:13:11.779Z,61.57
2023-04-15T14:18:14.084Z,61.92
2023-04-15T14:23:16.395Z,61.35
2023-04-15T14:28:18.547Z,61.17
2023-04-15T14:33:22.344Z,61.90
2023-04-15T14:38:24.527Z,62.58
2023-04-15T14:43:28.178Z,63.95
2023-04-15T14:48:32.121Z,65.37
2023-04-15T14:53:35.455Z,65.73
2023-04-15T14:58:37.964Z,65.11
2023-04-15T15:03:40.472Z,64.30
2023-04-15T15:08:45.870Z,64.81
2023-04-15T15:13:49.765Z,64.59
2023-04-15T15:18:52.114Z,64.25
2023-04-15T15:23:54.523Z,64.94
2023-04-15T15:28:56.715Z,63.79
2023-04-15T15:33:58.878Z,64.18
2023-04-15T15:39:00.996Z,62.52
2023-04-15T15:44:04.369Z,61.61
2023-04-15T15:49:07.393Z,62.67
2023-04-15T15:54:09.564Z,63.96
2023-04-15T15:59:11.726Z,65.09
2023-04-15T16:04:14.022Z,65.75
2023-04-15T16:09:16.906Z,66.08
2023-04-15T16:14:22.167Z,67.61
2023-04-15T16:19:24.316Z,69.86
2023-04-15T16:24:27.560Z,73.46
2023-04-15T16:29:29.703Z,78.81
2023-04-15T16:34:32.449Z,80.29
2023-04-15T16:39:34.782Z,80.84
2023-04-15T16:44:37.106Z,81.86
2023-04-15T16:49:39.390Z,82.82
2023-04-15T16:54:41.665Z,82.37
2023-04-15T16:59:43.806Z,82.14
2023-04-15T17:04:45.969Z,79.08
2023-04-15T17:09:48.078Z,79.25
2023-04-15T17:14:50.252Z,79.60
2023-04-15T17:19:52.495Z,81.21
2023-04-15T17:24:54.724Z,80.77
2023-04-15T17:29:57.576Z,81.68
2023-04-15T17:35:06.038Z,82.23
2023-04-15T17:40:09.049Z,83.61
2023-04-15T17:45:11.570Z,84.25
2023-04-15T17:50:13.761Z,85.39
2023-04-15T17:55:15.982Z,86.03
2023-04-15T18:00:18.361Z,86.98
2023-04-15T18:05:20.932Z,86.90
2023-04-15T18:10:24.097Z,86.92
2023-04-15T18:15:26.462Z,86.87
2023-04-15T18:20:29.189Z,86.93
2023-04-15T18:25:32.082Z,86.95
2023-04-15T18:30:34.234Z,87.58
2023-04-15T18:35:36.728Z,88.56
2023-04-15T18:40:38.920Z,89.75
2023-04-15T18:45:41.281Z,90.60
2023-04-15T18:50:43.650Z,91.28
2023-04-15T18:55:45.840Z,92.00
2023-04-15T19:00:48.057Z,92.69
2023-04-15T19:05:50.650Z,93.18
2023-04-15T19:10:53.397Z,93.53
2023-04-15T19:15:55.548Z,93.50
2023-04-15T19:20:57.909Z,93.90
2023-04-15T19:26:02.147Z,94.09
2023-04-15T19:31:04.613Z,94.36
2023-04-15T19:36:07.860Z,94.42
2023-04-15T19:41:11.079Z,94.59
2023-04-15T19:46:13.529Z,94.30
2023-04-15T19:51:15.910Z,94.24
2023-04-15T19:56:18.054Z,94.05
2023-04-15T20:01:21.035Z,93.72
2023-04-15T20:06:23.414Z,93.56
2023-04-15T20:12:09.929Z,93.31
2023-04-15T20:16:51.532Z,93.12
2023-04-15T20:21:54.444Z,92.36
2023-04-15T20:26:57.675Z,92.07
2023-04-15T20:31:59.806Z,92.11
2023-04-15T20:37:02.162Z,92.07
2023-04-15T20:42:10.883Z,92.30
2023-04-15T20:47:13.921Z,92.27
2023-04-15T20:52:16.406Z,92.36
2023-04-15T20:57:20.305Z,92.31
2023-04-15T21:02:23.760Z,92.22
2023-04-15T21:07:26.211Z,92.17
2023-04-15T21:12:31.329Z,92.25
2023-04-15T21:17:35.362Z,92.57
2023-04-15T21:22:37.687Z,92.78
2023-04-15T21:27:39.828Z,93.07
2023-04-15T21:32:42.011Z,93.33
2023-04-15T21:37:44.222Z,93.57
2023-04-15T21:42:47.496Z,93.86
2023-04-15T21:48:00.862Z,94.14
2023-04-15T21:53:09.913Z,94.49
2023-04-15T21:58:13.461Z,94.64
2023-04-15T22:03:16.613Z,94.73
2023-04-15T22:08:18.915Z,94.79
2023-04-15T22:13:21.174Z,94.68
2023-04-15T22:18:23.443Z,94.70
2023-04-15T22:23:25.585Z,94.81
2023-04-15T22:28:27.830Z,94.91
2023-04-15T22:33:30.057Z,94.89
2023-04-15T22:38:32.296Z,94.95
2023-04-15T22:43:34.456Z,94.85
2023-04-15T22:48:36.757Z,94.61
2023-04-15T22:53:38.911Z,94.15
2023-04-15T22:58:41.140Z,93.69
2023-04-15T23:03:56.077Z,93.39
2023-04-15T23:09:06.935Z,93.25
2023-04-15T23:14:09.176Z,93.15
2023-04-15T23:19:11.709Z,93.26
2023-04-15T23:24:14.173Z,93.42
2023-04-15T23:29:16.367Z,93.85
2023-04-15T23:34:18.546Z,94.07
2023-04-15T23:39:20.834Z,94.49
2023-04-15T23:44:23.383Z,94.68
2023-04-15T23:49:25.695Z,94.76
2023-04-15T23:54:27.844Z,94.94
2023-04-15T23:59:30.035Z,95.29
